sensor_id;sensor_type;location;lat;lon;timestamp;P1;durP1;ratioP1;P2;durP2;ratioP2
11854;SDS011;5987;53.140;8.904;2022-10-30T00:02:30;20.47;;;11.80;;
11854;SDS011;5987;53.140;8.904;2022-10-30T00:05:34;24.10;;;12.20;;
11854;SDS011;5987;53.140;8.904;2022-10-30T00:08:37;20.30;;;11.13;;
11854;SDS011;5987;53.140;8.904;2022-10-30T00:11:41;18.07;;;11.80;;
11854;SDS011;5987;53.140;8.904;2022-10-30T00:14:46;20.50;;;11.27;;
11854;SDS011;5987;53.140;8.904;2022-10-30T00:17:50;20.67;;;11.00;;
11854;SDS011;5987;53.140;8.904;2022-10-30T00:20:53;19.13;;;10.43;;
11854;SDS011;5987;53.140;8.904;2022-10-30T00:23:57;17.43;;;11.57;;
11854;SDS011;5987;53.140;8.904;2022-10-30T00:27:01;19.63;;;12.47;;
11854;SDS011;5987;53.140;8.904;2022-10-30T00:30:10;18.13;;;11.23;;
11854;SDS011;5987;53.140;8.904;2022-10-30T00:33:15;18.90;;;11.83;;
11854;SDS011;5987;53.140;8.904;2022-10-30T00:36:19;21.23;;;10.60;;
11854;SDS011;5987;53.140;8.904;2022-10-30T00:39:24;21.93;;;10.40;;
11854;SDS011;5987;53.140;8.904;2022-10-30T00:42:28;14.07;;;10.67;;
11854;SDS011;5987;53.140;8.904;2022-10-30T00:45:34;19.17;;;10.70;;
11854;SDS011;5987;53.140;8.904;2022-10-30T00:48:38;19.60;;;11.37;;
11854;SDS011;5987;53.140;8.904;2022-10-30T00:51:44;19.03;;;11.50;;
11854;SDS011;5987;53.140;8.904;2022-10-30T00:54:53;23.63;;;12.23;;
11854;SDS011;5987;53.140;8.904;2022-10-30T00:58:00;15.20;;;10.43;;
11854;SDS011;5987;53.140;8.904;2022-10-30T01:01:12;20.00;;;11.23;;
11854;SDS011;5987;53.140;8.904;2022-10-30T01:04:20;18.53;;;11.80;;
11854;SDS011;5987;53.140;8.904;2022-10-30T01:07:30;18.43;;;11.67;;
11854;SDS011;5987;53.140;8.904;2022-10-30T01:10:34;15.07;;;10.07;;
11854;SDS011;5987;53.140;8.904;2022-10-30T01:13:38;16.30;;;10.93;;
11854;SDS011;5987;53.140;8.904;2022-10-30T01:16:51;21.20;;;10.70;;
11854;SDS011;5987;53.140;8.904;2022-10-30T01:20:21;18.87;;;10.47;;
11854;SDS011;5987;53.140;8.904;2022-10-30T01:23:54;17.73;;;10.63;;
11854;SDS011;5987;53.140;8.904;2022-10-30T01:30:47;13.00;;;10.50;;
11854;SDS011;5987;53.140;8.904;2022-10-30T01:34:12;14.20;;;10.00;;
11854;SDS011;5987;53.140;8.904;2022-10-30T01:37:24;14.40;;;9.83;;
11854;SDS011;5987;53.140;8.904;2022-10-30T01:40:37;18.77;;;10.00;;
11854;SDS011;5987;53.140;8.904;2022-10-30T01:43:40;15.23;;;9.40;;
11854;SDS011;5987;53.140;8.904;2022-10-30T01:46:54;16.03;;;9.27;;
11854;SDS011;5987;53.140;8.904;2022-10-30T01:50:27;16.37;;;8.77;;
11854;SDS011;5987;53.140;8.904;2022-10-30T01:53:44;13.60;;;8.27;;
11854;SDS011;5987;53.140;8.904;2022-10-30T01:57:00;13.47;;;8.00;;
11854;SDS011;5987;53.140;8.904;2022-10-30T02:00:13;13.03;;;8.47;;
11854;SDS011;5987;53.140;8.904;2022-10-30T02:03:20;14.43;;;9.10;;
11854;SDS011;5987;53.140;8.904;2022-10-30T02:06:25;14.27;;;7.87;;
11854;SDS011;5987;53.140;8.904;2022-10-30T02:09:29;14.40;;;7.67;;
11854;SDS011;5987;53.140;8.904;2022-10-30T02:12:33;14.60;;;8.33;;
11854;SDS011;5987;53.140;8.904;2022-10-30T02:15:37;17.10;;;7.00;;
11854;SDS011;5987;53.140;8.904;2022-10-30T02:18:42;11.37;;;8.03;;
11854;SDS011;5987;53.140;8.904;2022-10-30T02:21:52;12.60;;;8.27;;
11854;SDS011;5987;53.140;8.904;2022-10-30T02:24:56;12.37;;;7.50;;
11854;SDS011;5987;53.140;8.904;2022-10-30T02:27:59;13.10;;;8.07;;
11854;SDS011;5987;53.140;8.904;2022-10-30T02:31:03;12.23;;;8.70;;
11854;SDS011;5987;53.140;8.904;2022-10-30T02:34:08;12.23;;;8.57;;
11854;SDS011;5987;53.140;8.904;2022-10-30T02:37:13;12.47;;;8.90;;
11854;SDS011;5987;53.140;8.904;2022-10-30T02:40:16;13.03;;;8.13;;
11854;SDS011;5987;53.140;8.904;2022-10-30T02:43:20;14.57;;;8.90;;
11854;SDS011;5987;53.140;8.904;2022-10-30T02:46:23;17.07;;;9.17;;
11854;SDS011;5987;53.140;8.904;2022-10-30T02:49:27;12.43;;;8.83;;
11854;SDS011;5987;53.140;8.904;2022-10-30T02:52:32;15.93;;;9.53;;
11854;SDS011;5987;53.140;8.904;2022-10-30T02:55:35;13.77;;;9.73;;
11854;SDS011;5987;53.140;8.904;2022-10-30T02:58:39;13.83;;;9.33;;
11854;SDS011;5987;53.140;8.904;2022-10-30T03:01:43;16.10;;;9.73;;
11854;SDS011;5987;53.140;8.904;2022-10-30T03:04:47;15.93;;;9.53;;
11854;SDS011;5987;53.140;8.904;2022-10-30T03:07:52;17.57;;;10.13;;
11854;SDS011;5987;53.140;8.904;2022-10-30T03:10:59;15.20;;;9.60;;
11854;SDS011;5987;53.140;8.904;2022-10-30T03:14:03;16.07;;;9.93;;
11854;SDS011;5987;53.140;8.904;2022-10-30T03:17:07;16.03;;;10.20;;
11854;SDS011;5987;53.140;8.904;2022-10-30T03:20:11;20.00;;;10.40;;
11854;SDS011;5987;53.140;8.904;2022-10-30T03:23:16;17.63;;;9.03;;
11854;SDS011;5987;53.140;8.904;2022-10-30T03:26:20;17.53;;;9.63;;
11854;SDS011;5987;53.140;8.904;2022-10-30T03:29:24;13.87;;;8.70;;
11854;SDS011;5987;53.140;8.904;2022-10-30T03:32:27;21.93;;;9.87;;
11854;SDS011;5987;53.140;8.904;2022-10-30T03:35:31;14.83;;;8.57;;
11854;SDS011;5987;53.140;8.904;2022-10-30T03:38:39;18.53;;;9.43;;
11854;SDS011;5987;53.140;8.904;2022-10-30T03:41:43;18.17;;;8.40;;
11854;SDS011;5987;53.140;8.904;2022-10-30T03:44:46;15.20;;;8.80;;
11854;SDS011;5987;53.140;8.904;2022-10-30T03:47:50;13.97;;;8.23;;
11854;SDS011;5987;53.140;8.904;2022-10-30T03:50:54;14.00;;;8.57;;
11854;SDS011;5987;53.140;8.904;2022-10-30T03:54:01;14.97;;;9.43;;
11854;SDS011;5987;53.140;8.904;2022-10-30T03:57:05;16.27;;;8.10;;
11854;SDS011;5987;53.140;8.904;2022-10-30T04:00:10;16.03;;;8.93;;
11854;SDS011;5987;53.140;8.904;2022-10-30T04:03:14;11.43;;;7.70;;
11854;SDS011;5987;53.140;8.904;2022-10-30T04:06:18;16.50;;;9.00;;
11854;SDS011;5987;53.140;8.904;2022-10-30T04:09:23;19.20;;;8.63;;
11854;SDS011;5987;53.140;8.904;2022-10-30T04:12:27;14.80;;;8.10;;
11854;SDS011;5987;53.140;8.904;2022-10-30T04:15:30;12.83;;;9.47;;
11854;SDS011;5987;53.140;8.904;2022-10-30T04:18:35;15.07;;;7.97;;
11854;SDS011;5987;53.140;8.904;2022-10-30T04:21:38;15.83;;;8.53;;
11854;SDS011;5987;53.140;8.904;2022-10-30T04:24:45;14.07;;;8.07;;
11854;SDS011;5987;53.140;8.904;2022-10-30T04:27:49;11.33;;;7.30;;
11854;SDS011;5987;53.140;8.904;2022-10-30T04:30:53;12.23;;;7.83;;
11854;SDS011;5987;53.140;8.904;2022-10-30T04:33:58;13.10;;;8.73;;
11854;SDS011;5987;53.140;8.904;2022-10-30T04:37:02;13.47;;;7.60;;
11854;SDS011;5987;53.140;8.904;2022-10-30T04:40:07;13.03;;;7.67;;
11854;SDS011;5987;53.140;8.904;2022-10-30T04:43:12;12.57;;;7.70;;
11854;SDS011;5987;53.140;8.904;2022-10-30T04:46:16;10.97;;;8.17;;
11854;SDS011;5987;53.140;8.904;2022-10-30T04:49:20;12.53;;;7.97;;
11854;SDS011;5987;53.140;8.904;2022-10-30T04:52:24;12.57;;;8.30;;
11854;SDS011;5987;53.140;8.904;2022-10-30T04:55:29;18.63;;;8.20;;
11854;SDS011;5987;53.140;8.904;2022-10-30T04:58:33;13.43;;;7.80;;
11854;SDS011;5987;53.140;8.904;2022-10-30T05:01:37;12.23;;;7.17;;
11854;SDS011;5987;53.140;8.904;2022-10-30T05:04:41;16.03;;;7.53;;
11854;SDS011;5987;53.140;8.904;2022-10-30T05:07:44;8.63;;;7.17;;
11854;SDS011;5987;53.140;8.904;2022-10-30T05:10:49;12.00;;;6.87;;
11854;SDS011;5987;53.140;8.904;2022-10-30T05:13:53;12.97;;;7.53;;
11854;SDS011;5987;53.140;8.904;2022-10-30T05:16:57;9.57;;;6.70;;
11854;SDS011;5987;53.140;8.904;2022-10-30T05:20:01;11.30;;;6.90;;
11854;SDS011;5987;53.140;8.904;2022-10-30T05:23:06;11.87;;;7.13;;
11854;SDS011;5987;53.140;8.904;2022-10-30T05:26:12;11.93;;;7.13;;
11854;SDS011;5987;53.140;8.904;2022-10-30T05:29:16;11.97;;;7.47;;
11854;SDS011;5987;53.140;8.904;2022-10-30T05:32:19;13.07;;;7.57;;
11854;SDS011;5987;53.140;8.904;2022-10-30T05:35:23;13.20;;;6.93;;
11854;SDS011;5987;53.140;8.904;2022-10-30T05:38:28;10.10;;;6.87;;
11854;SDS011;5987;53.140;8.904;2022-10-30T05:41:33;14.60;;;7.20;;
11854;SDS011;5987;53.140;8.904;2022-10-30T05:44:38;12.53;;;6.90;;
11854;SDS011;5987;53.140;8.904;2022-10-30T05:48:01;10.33;;;7.33;;
11854;SDS011;5987;53.140;8.904;2022-10-30T05:51:07;13.43;;;8.70;;
11854;SDS011;5987;53.140;8.904;2022-10-30T05:54:11;11.97;;;7.10;;
11854;SDS011;5987;53.140;8.904;2022-10-30T05:57:16;16.70;;;8.00;;
11854;SDS011;5987;53.140;8.904;2022-10-30T06:00:19;14.37;;;7.70;;
11854;SDS011;5987;53.140;8.904;2022-10-30T06:03:23;8.50;;;7.07;;
11854;SDS011;5987;53.140;8.904;2022-10-30T06:06:27;12.27;;;7.90;;
11854;SDS011;5987;53.140;8.904;2022-10-30T06:09:30;13.37;;;7.50;;
11854;SDS011;5987;53.140;8.904;2022-10-30T06:12:35;10.30;;;7.17;;
11854;SDS011;5987;53.140;8.904;2022-10-30T06:15:39;13.40;;;7.37;;
11854;SDS011;5987;53.140;8.904;2022-10-30T06:18:43;14.80;;;7.13;;
11854;SDS011;5987;53.140;8.904;2022-10-30T06:21:46;15.30;;;7.80;;
11854;SDS011;5987;53.140;8.904;2022-10-30T06:24:50;16.07;;;8.27;;
11854;SDS011;5987;53.140;8.904;2022-10-30T06:27:55;11.43;;;7.67;;
11854;SDS011;5987;53.140;8.904;2022-10-30T06:31:00;11.10;;;6.77;;
11854;SDS011;5987;53.140;8.904;2022-10-30T06:34:04;11.97;;;7.27;;
11854;SDS011;5987;53.140;8.904;2022-10-30T06:37:08;11.43;;;8.23;;
11854;SDS011;5987;53.140;8.904;2022-10-30T06:40:11;12.10;;;7.80;;
11854;SDS011;5987;53.140;8.904;2022-10-30T06:43:17;14.10;;;7.10;;
11854;SDS011;5987;53.140;8.904;2022-10-30T06:46:21;12.47;;;6.93;;
11854;SDS011;5987;53.140;8.904;2022-10-30T06:49:31;11.33;;;6.80;;
11854;SDS011;5987;53.140;8.904;2022-10-30T06:52:34;12.17;;;7.00;;
11854;SDS011;5987;53.140;8.904;2022-10-30T06:55:38;12.97;;;7.03;;
11854;SDS011;5987;53.140;8.904;2022-10-30T06:58:44;12.50;;;8.07;;
11854;SDS011;5987;53.140;8.904;2022-10-30T07:01:47;10.50;;;7.27;;
11854;SDS011;5987;53.140;8.904;2022-10-30T07:04:58;13.10;;;7.03;;
11854;SDS011;5987;53.140;8.904;2022-10-30T07:08:01;12.20;;;6.83;;
11854;SDS011;5987;53.140;8.904;2022-10-30T07:11:05;15.63;;;7.83;;
11854;SDS011;5987;53.140;8.904;2022-10-30T07:14:10;12.87;;;7.90;;
11854;SDS011;5987;53.140;8.904;2022-10-30T07:17:14;12.77;;;8.13;;
11854;SDS011;5987;53.140;8.904;2022-10-30T07:20:18;12.20;;;7.70;;
11854;SDS011;5987;53.140;8.904;2022-10-30T07:23:21;12.53;;;8.13;;
11854;SDS011;5987;53.140;8.904;2022-10-30T07:26:26;11.57;;;7.30;;
11854;SDS011;5987;53.140;8.904;2022-10-30T07:29:31;11.97;;;7.50;;
11854;SDS011;5987;53.140;8.904;2022-10-30T07:32:37;12.13;;;7.97;;
11854;SDS011;5987;53.140;8.904;2022-10-30T07:35:44;9.87;;;7.67;;
11854;SDS011;5987;53.140;8.904;2022-10-30T07:38:51;9.73;;;7.63;;
11854;SDS011;5987;53.140;8.904;2022-10-30T07:41:55;13.37;;;7.37;;
11854;SDS011;5987;53.140;8.904;2022-10-30T07:45:00;15.73;;;7.40;;
11854;SDS011;5987;53.140;8.904;2022-10-30T07:48:04;12.73;;;8.47;;
11854;SDS011;5987;53.140;8.904;2022-10-30T07:51:08;9.30;;;7.40;;
11854;SDS011;5987;53.140;8.904;2022-10-30T07:54:12;12.13;;;7.97;;
11854;SDS011;5987;53.140;8.904;2022-10-30T07:57:15;14.77;;;8.40;;
11854;SDS011;5987;53.140;8.904;2022-10-30T08:00:20;18.67;;;9.03;;
11854;SDS011;5987;53.140;8.904;2022-10-30T08:03:24;11.93;;;8.60;;
11854;SDS011;5987;53.140;8.904;2022-10-30T08:06:28;12.23;;;8.53;;
11854;SDS011;5987;53.140;8.904;2022-10-30T08:09:32;13.40;;;9.07;;
11854;SDS011;5987;53.140;8.904;2022-10-30T08:12:35;15.80;;;9.30;;
11854;SDS011;5987;53.140;8.904;2022-10-30T08:15:42;19.67;;;9.57;;
11854;SDS011;5987;53.140;8.904;2022-10-30T08:18:46;17.20;;;9.70;;
11854;SDS011;5987;53.140;8.904;2022-10-30T08:21:49;16.30;;;9.60;;
11854;SDS011;5987;53.140;8.904;2022-10-30T08:24:59;16.83;;;9.87;;
11854;SDS011;5987;53.140;8.904;2022-10-30T08:28:04;13.63;;;8.47;;
11854;SDS011;5987;53.140;8.904;2022-10-30T08:31:10;17.90;;;9.37;;
11854;SDS011;5987;53.140;8.904;2022-10-30T08:34:14;14.27;;;9.60;;
11854;SDS011;5987;53.140;8.904;2022-10-30T08:37:18;21.33;;;10.43;;
11854;SDS011;5987;53.140;8.904;2022-10-30T08:40:21;16.33;;;9.67;;
11854;SDS011;5987;53.140;8.904;2022-10-30T08:43:26;20.27;;;10.87;;
11854;SDS011;5987;53.140;8.904;2022-10-30T08:46:32;16.03;;;9.80;;
11854;SDS011;5987;53.140;8.904;2022-10-30T08:49:35;18.80;;;11.17;;
11854;SDS011;5987;53.140;8.904;2022-10-30T08:52:39;14.77;;;9.67;;
11854;SDS011;5987;53.140;8.904;2022-10-30T08:55:43;15.97;;;10.10;;
11854;SDS011;5987;53.140;8.904;2022-10-30T08:58:46;15.77;;;10.73;;
11854;SDS011;5987;53.140;8.904;2022-10-30T09:01:53;21.53;;;10.37;;
11854;SDS011;5987;53.140;8.904;2022-10-30T09:04:57;16.47;;;9.13;;
11854;SDS011;5987;53.140;8.904;2022-10-30T09:08:00;15.17;;;10.23;;
11854;SDS011;5987;53.140;8.904;2022-10-30T09:11:04;17.43;;;10.00;;
11854;SDS011;5987;53.140;8.904;2022-10-30T09:14:11;14.60;;;10.10;;
11854;SDS011;5987;53.140;8.904;2022-10-30T09:17:17;23.40;;;10.40;;
11854;SDS011;5987;53.140;8.904;2022-10-30T09:20:29;16.07;;;10.70;;
11854;SDS011;5987;53.140;8.904;2022-10-30T09:23:33;15.53;;;9.63;;
11854;SDS011;5987;53.140;8.904;2022-10-30T09:26:37;18.00;;;9.50;;
11854;SDS011;5987;53.140;8.904;2022-10-30T09:29:41;20.97;;;10.47;;
11854;SDS011;5987;53.140;8.904;2022-10-30T09:32:52;18.07;;;10.40;;
11854;SDS011;5987;53.140;8.904;2022-10-30T09:35:58;15.73;;;9.30;;
11854;SDS011;5987;53.140;8.904;2022-10-30T09:39:03;16.77;;;10.57;;
11854;SDS011;5987;53.140;8.904;2022-10-30T09:42:12;15.47;;;8.83;;
11854;SDS011;5987;53.140;8.904;2022-10-30T09:45:47;19.67;;;10.23;;
11854;SDS011;5987;53.140;8.904;2022-10-30T09:49:19;17.03;;;9.40;;
11854;SDS011;5987;53.140;8.904;2022-10-30T09:52:45;15.93;;;9.83;;
11854;SDS011;5987;53.140;8.904;2022-10-30T09:56:03;17.87;;;9.47;;
11854;SDS011;5987;53.140;8.904;2022-10-30T09:59:18;21.07;;;9.60;;
11854;SDS011;5987;53.140;8.904;2022-10-30T10:02:38;15.93;;;9.03;;
11854;SDS011;5987;53.140;8.904;2022-10-30T10:06:01;15.30;;;8.50;;
11854;SDS011;5987;53.140;8.904;2022-10-30T10:09:14;20.73;;;9.97;;
11854;SDS011;5987;53.140;8.904;2022-10-30T10:12:24;16.43;;;9.03;;
11854;SDS011;5987;53.140;8.904;2022-10-30T10:15:37;18.07;;;9.27;;
11854;SDS011;5987;53.140;8.904;2022-10-30T10:18:46;19.07;;;9.87;;
11854;SDS011;5987;53.140;8.904;2022-10-30T10:21:57;17.00;;;9.17;;
11854;SDS011;5987;53.140;8.904;2022-10-30T10:25:06;16.90;;;9.57;;
11854;SDS011;5987;53.140;8.904;2022-10-30T10:28:19;17.87;;;8.83;;
11854;SDS011;5987;53.140;8.904;2022-10-30T10:31:49;19.50;;;9.13;;
11854;SDS011;5987;53.140;8.904;2022-10-30T10:35:19;15.90;;;8.80;;
11854;SDS011;5987;53.140;8.904;2022-10-30T10:38:53;15.07;;;8.80;;
11854;SDS011;5987;53.140;8.904;2022-10-30T10:42:18;13.37;;;8.03;;
11854;SDS011;5987;53.140;8.904;2022-10-30T10:45:32;18.57;;;8.57;;
11854;SDS011;5987;53.140;8.904;2022-10-30T10:48:50;13.03;;;8.03;;
11854;SDS011;5987;53.140;8.904;2022-10-30T10:52:13;10.97;;;7.73;;
11854;SDS011;5987;53.140;8.904;2022-10-30T10:55:25;24.43;;;9.23;;
11854;SDS011;5987;53.140;8.904;2022-10-30T10:58:35;12.13;;;8.13;;
11854;SDS011;5987;53.140;8.904;2022-10-30T11:01:49;17.00;;;8.50;;
11854;SDS011;5987;53.140;8.904;2022-10-30T11:05:03;11.47;;;8.10;;
11854;SDS011;5987;53.140;8.904;2022-10-30T11:08:17;13.37;;;7.63;;
11854;SDS011;5987;53.140;8.904;2022-10-30T11:11:28;15.10;;;7.47;;
11854;SDS011;5987;53.140;8.904;2022-10-30T11:14:32;15.73;;;7.37;;
11854;SDS011;5987;53.140;8.904;2022-10-30T11:17:37;14.03;;;7.03;;
11854;SDS011;5987;53.140;8.904;2022-10-30T11:20:54;14.03;;;7.27;;
11854;SDS011;5987;53.140;8.904;2022-10-30T11:24:03;12.20;;;7.10;;
11854;SDS011;5987;53.140;8.904;2022-10-30T11:27:31;14.33;;;7.87;;
11854;SDS011;5987;53.140;8.904;2022-10-30T11:30:35;14.63;;;7.40;;
11854;SDS011;5987;53.140;8.904;2022-10-30T11:33:38;12.53;;;7.40;;
11854;SDS011;5987;53.140;8.904;2022-10-30T11:36:42;12.07;;;7.33;;
11854;SDS011;5987;53.140;8.904;2022-10-30T11:39:47;13.37;;;7.17;;
11854;SDS011;5987;53.140;8.904;2022-10-30T11:43:07;14.83;;;6.77;;
11854;SDS011;5987;53.140;8.904;2022-10-30T11:46:22;14.77;;;6.63;;
11854;SDS011;5987;53.140;8.904;2022-10-30T11:49:30;18.87;;;7.47;;
11854;SDS011;5987;53.140;8.904;2022-10-30T11:52:43;12.33;;;6.63;;
11854;SDS011;5987;53.140;8.904;2022-10-30T11:55:47;13.60;;;6.57;;
11854;SDS011;5987;53.140;8.904;2022-10-30T11:58:54;12.63;;;6.83;;
11854;SDS011;5987;53.140;8.904;2022-10-30T12:02:02;14.93;;;6.03;;
11854;SDS011;5987;53.140;8.904;2022-10-30T12:05:33;12.20;;;6.53;;
11854;SDS011;5987;53.140;8.904;2022-10-30T12:08:39;14.07;;;6.53;;
11854;SDS011;5987;53.140;8.904;2022-10-30T12:11:43;13.80;;;6.93;;
11854;SDS011;5987;53.140;8.904;2022-10-30T12:14:48;14.97;;;7.73;;
11854;SDS011;5987;53.140;8.904;2022-10-30T12:17:54;11.33;;;7.10;;
11854;SDS011;5987;53.140;8.904;2022-10-30T12:21:03;13.30;;;6.80;;
11854;SDS011;5987;53.140;8.904;2022-10-30T12:24:11;13.57;;;6.90;;
11854;SDS011;5987;53.140;8.904;2022-10-30T12:27:22;14.93;;;7.80;;
11854;SDS011;5987;53.140;8.904;2022-10-30T12:30:29;11.97;;;6.40;;
11854;SDS011;5987;53.140;8.904;2022-10-30T12:33:39;11.50;;;6.27;;
11854;SDS011;5987;53.140;8.904;2022-10-30T12:36:51;12.10;;;7.40;;
11854;SDS011;5987;53.140;8.904;2022-10-30T12:40:06;14.27;;;6.70;;
11854;SDS011;5987;53.140;8.904;2022-10-30T12:43:19;12.67;;;8.03;;
11854;SDS011;5987;53.140;8.904;2022-10-30T12:46:30;15.27;;;6.47;;
11854;SDS011;5987;53.140;8.904;2022-10-30T12:49:44;12.03;;;6.80;;
11854;SDS011;5987;53.140;8.904;2022-10-30T12:52:55;15.43;;;7.57;;
11854;SDS011;5987;53.140;8.904;2022-10-30T12:56:07;15.57;;;7.57;;
11854;SDS011;5987;53.140;8.904;2022-10-30T12:59:20;14.60;;;6.33;;
11854;SDS011;5987;53.140;8.904;2022-10-30T13:02:39;10.37;;;7.20;;
11854;SDS011;5987;53.140;8.904;2022-10-30T13:05:53;14.70;;;7.27;;
11854;SDS011;5987;53.140;8.904;2022-10-30T13:09:04;12.00;;;6.70;;
11854;SDS011;5987;53.140;8.904;2022-10-30T13:12:20;17.50;;;7.43;;
11854;SDS011;5987;53.140;8.904;2022-10-30T13:15:32;16.27;;;7.50;;
11854;SDS011;5987;53.140;8.904;2022-10-30T13:18:45;12.67;;;7.33;;
11854;SDS011;5987;53.140;8.904;2022-10-30T13:21:50;16.23;;;7.67;;
11854;SDS011;5987;53.140;8.904;2022-10-30T13:25:06;16.13;;;7.20;;
11854;SDS011;5987;53.140;8.904;2022-10-30T13:28:19;11.77;;;7.23;;
11854;SDS011;5987;53.140;8.904;2022-10-30T13:31:30;17.53;;;7.33;;
11854;SDS011;5987;53.140;8.904;2022-10-30T13:34:46;13.83;;;6.87;;
11854;SDS011;5987;53.140;8.904;2022-10-30T13:38:05;14.80;;;7.63;;
11854;SDS011;5987;53.140;8.904;2022-10-30T13:41:47;12.27;;;7.37;;
11854;SDS011;5987;53.140;8.904;2022-10-30T13:45:11;15.97;;;8.57;;
11854;SDS011;5987;53.140;8.904;2022-10-30T13:48:40;17.07;;;7.17;;
11854;SDS011;5987;53.140;8.904;2022-10-30T13:52:13;15.13;;;7.97;;
11854;SDS011;5987;53.140;8.904;2022-10-30T13:55:19;16.13;;;7.40;;
11854;SDS011;5987;53.140;8.904;2022-10-30T13:58:31;12.50;;;7.67;;
11854;SDS011;5987;53.140;8.904;2022-10-30T14:01:48;14.37;;;7.73;;
11854;SDS011;5987;53.140;8.904;2022-10-30T14:05:03;15.43;;;8.30;;
11854;SDS011;5987;53.140;8.904;2022-10-30T14:08:32;17.07;;;8.37;;
11854;SDS011;5987;53.140;8.904;2022-10-30T14:11:43;13.33;;;7.90;;
11854;SDS011;5987;53.140;8.904;2022-10-30T14:14:46;15.23;;;8.43;;
11854;SDS011;5987;53.140;8.904;2022-10-30T14:21:51;14.20;;;8.57;;
11854;SDS011;5987;53.140;8.904;2022-10-30T14:24:58;16.60;;;9.47;;
11854;SDS011;5987;53.140;8.904;2022-10-30T14:28:03;14.57;;;9.67;;
11854;SDS011;5987;53.140;8.904;2022-10-30T14:31:31;14.57;;;8.70;;
11854;SDS011;5987;53.140;8.904;2022-10-30T14:34:40;17.37;;;9.20;;
11854;SDS011;5987;53.140;8.904;2022-10-30T14:37:55;15.17;;;9.30;;
11854;SDS011;5987;53.140;8.904;2022-10-30T14:44:48;16.33;;;8.50;;
11854;SDS011;5987;53.140;8.904;2022-10-30T14:48:11;16.73;;;8.63;;
11854;SDS011;5987;53.140;8.904;2022-10-30T14:51:23;16.67;;;8.47;;
11854;SDS011;5987;53.140;8.904;2022-10-30T14:54:40;18.77;;;8.40;;
11854;SDS011;5987;53.140;8.904;2022-10-30T14:58:07;16.33;;;8.60;;
11854;SDS011;5987;53.140;8.904;2022-10-30T15:01:22;16.80;;;8.20;;
11854;SDS011;5987;53.140;8.904;2022-10-30T15:04:37;13.30;;;8.23;;
11854;SDS011;5987;53.140;8.904;2022-10-30T15:07:59;15.57;;;8.87;;
11854;SDS011;5987;53.140;8.904;2022-10-30T15:11:38;16.53;;;8.67;;
11854;SDS011;5987;53.140;8.904;2022-10-30T15:15:21;14.43;;;9.00;;
11854;SDS011;5987;53.140;8.904;2022-10-30T15:18:26;16.37;;;8.90;;
11854;SDS011;5987;53.140;8.904;2022-10-30T15:21:32;21.07;;;9.77;;
11854;SDS011;5987;53.140;8.904;2022-10-30T15:24:44;16.47;;;9.17;;
11854;SDS011;5987;53.140;8.904;2022-10-30T15:27:49;16.00;;;8.90;;
11854;SDS011;5987;53.140;8.904;2022-10-30T15:30:59;11.40;;;8.23;;
11854;SDS011;5987;53.140;8.904;2022-10-30T15:34:13;17.67;;;9.20;;
11854;SDS011;5987;53.140;8.904;2022-10-30T15:37:24;16.27;;;9.53;;
11854;SDS011;5987;53.140;8.904;2022-10-30T15:40:29;17.13;;;10.23;;
11854;SDS011;5987;53.140;8.904;2022-10-30T15:43:35;13.67;;;10.13;;
11854;SDS011;5987;53.140;8.904;2022-10-30T15:46:45;15.73;;;10.77;;
11854;SDS011;5987;53.140;8.904;2022-10-30T15:49:51;17.23;;;11.73;;
11854;SDS011;5987;53.140;8.904;2022-10-30T15:52:57;22.27;;;11.47;;
11854;SDS011;5987;53.140;8.904;2022-10-30T15:56:02;15.53;;;10.43;;
11854;SDS011;5987;53.140;8.904;2022-10-30T15:59:18;21.07;;;12.43;;
11854;SDS011;5987;53.140;8.904;2022-10-30T16:02:27;17.23;;;11.70;;
11854;SDS011;5987;53.140;8.904;2022-10-30T16:05:31;21.80;;;14.60;;
11854;SDS011;5987;53.140;8.904;2022-10-30T16:08:41;20.27;;;14.60;;
11854;SDS011;5987;53.140;8.904;2022-10-30T16:11:47;25.07;;;14.73;;
11854;SDS011;5987;53.140;8.904;2022-10-30T16:14:54;22.17;;;14.07;;
11854;SDS011;5987;53.140;8.904;2022-10-30T16:18:09;22.00;;;15.77;;
11854;SDS011;5987;53.140;8.904;2022-10-30T16:21:21;22.03;;;15.03;;
11854;SDS011;5987;53.140;8.904;2022-10-30T16:24:30;23.73;;;14.63;;
11854;SDS011;5987;53.140;8.904;2022-10-30T16:27:41;28.63;;;16.87;;
11854;SDS011;5987;53.140;8.904;2022-10-30T16:30:46;21.60;;;13.07;;
11854;SDS011;5987;53.140;8.904;2022-10-30T16:33:51;24.40;;;14.97;;
11854;SDS011;5987;53.140;8.904;2022-10-30T16:36:55;21.90;;;14.23;;
11854;SDS011;5987;53.140;8.904;2022-10-30T16:40:01;22.30;;;14.10;;
11854;SDS011;5987;53.140;8.904;2022-10-30T16:43:22;18.60;;;13.23;;
11854;SDS011;5987;53.140;8.904;2022-10-30T16:46:34;23.33;;;14.60;;
11854;SDS011;5987;53.140;8.904;2022-10-30T16:49:44;24.43;;;16.07;;
11854;SDS011;5987;53.140;8.904;2022-10-30T16:52:53;30.43;;;19.40;;
11854;SDS011;5987;53.140;8.904;2022-10-30T16:55:57;27.33;;;18.90;;
11854;SDS011;5987;53.140;8.904;2022-10-30T16:59:05;30.30;;;17.10;;
11854;SDS011;5987;53.140;8.904;2022-10-30T17:02:22;27.03;;;16.70;;
11854;SDS011;5987;53.140;8.904;2022-10-30T17:05:33;24.07;;;16.13;;
11854;SDS011;5987;53.140;8.904;2022-10-30T17:08:41;22.13;;;15.87;;
11854;SDS011;5987;53.140;8.904;2022-10-30T17:11:46;21.93;;;16.30;;
11854;SDS011;5987;53.140;8.904;2022-10-30T17:15:26;25.30;;;17.17;;
11854;SDS011;5987;53.140;8.904;2022-10-30T17:18:29;24.20;;;17.47;;
11854;SDS011;5987;53.140;8.904;2022-10-30T17:21:37;24.73;;;17.33;;
11854;SDS011;5987;53.140;8.904;2022-10-30T17:24:43;26.07;;;18.90;;
11854;SDS011;5987;53.140;8.904;2022-10-30T17:27:48;26.13;;;19.17;;
11854;SDS011;5987;53.140;8.904;2022-10-30T17:30:52;30.20;;;20.63;;
11854;SDS011;5987;53.140;8.904;2022-10-30T17:34:10;31.53;;;20.77;;
11854;SDS011;5987;53.140;8.904;2022-10-30T17:37:21;29.10;;;20.33;;
11854;SDS011;5987;53.140;8.904;2022-10-30T17:40:24;24.30;;;18.57;;
11854;SDS011;5987;53.140;8.904;2022-10-30T17:43:29;28.33;;;19.70;;
11854;SDS011;5987;53.140;8.904;2022-10-30T17:46:35;24.50;;;18.43;;
11854;SDS011;5987;53.140;8.904;2022-10-30T17:49:39;29.13;;;17.80;;
11854;SDS011;5987;53.140;8.904;2022-10-30T17:52:44;43.77;;;30.83;;
11854;SDS011;5987;53.140;8.904;2022-10-30T17:55:48;33.73;;;23.53;;
11854;SDS011;5987;53.140;8.904;2022-10-30T17:58:59;38.03;;;28.63;;
11854;SDS011;5987;53.140;8.904;2022-10-30T18:02:07;39.17;;;31.00;;
11854;SDS011;5987;53.140;8.904;2022-10-30T18:05:17;27.63;;;20.73;;
11854;SDS011;5987;53.140;8.904;2022-10-30T18:08:28;28.97;;;21.10;;
11854;SDS011;5987;53.140;8.904;2022-10-30T18:11:32;26.67;;;19.43;;
11854;SDS011;5987;53.140;8.904;2022-10-30T18:14:35;30.17;;;22.90;;
11854;SDS011;5987;53.140;8.904;2022-10-30T18:17:40;114.23;;;66.63;;
11854;SDS011;5987;53.140;8.904;2022-10-30T18:20:44;125.57;;;71.53;;
11854;SDS011;5987;53.140;8.904;2022-10-30T18:23:49;73.33;;;41.83;;
11854;SDS011;5987;53.140;8.904;2022-10-30T18:26:54;40.00;;;26.60;;
11854;SDS011;5987;53.140;8.904;2022-10-30T18:29:59;26.63;;;18.57;;
11854;SDS011;5987;53.140;8.904;2022-10-30T18:33:02;32.37;;;19.57;;
11854;SDS011;5987;53.140;8.904;2022-10-30T18:36:09;28.60;;;20.53;;
11854;SDS011;5987;53.140;8.904;2022-10-30T18:39:16;28.20;;;19.87;;
11854;SDS011;5987;53.140;8.904;2022-10-30T18:42:20;66.43;;;45.63;;
11854;SDS011;5987;53.140;8.904;2022-10-30T18:45:25;48.60;;;35.80;;
11854;SDS011;5987;53.140;8.904;2022-10-30T18:48:31;97.33;;;73.00;;
11854;SDS011;5987;53.140;8.904;2022-10-30T18:51:35;43.07;;;29.10;;
11854;SDS011;5987;53.140;8.904;2022-10-30T18:54:40;46.27;;;33.47;;
11854;SDS011;5987;53.140;8.904;2022-10-30T18:57:44;74.33;;;50.03;;
11854;SDS011;5987;53.140;8.904;2022-10-30T19:00:49;40.23;;;29.67;;
11854;SDS011;5987;53.140;8.904;2022-10-30T19:04:11;138.73;;;92.73;;